createdAt,value
2023-02-25T00:01:32.455Z,2.30
2023-02-25T00:03:59.798Z,4.67
2023-02-25T00:06:26.899Z,1.87
2023-02-25T00:08:54.408Z,1.50
2023-02-25T00:11:22.765Z,1.93
2023-02-25T00:13:50.308Z,2.03
2023-02-25T00:16:18.246Z,2.03
2023-02-25T00:18:46.673Z,2.20
2023-02-25T00:21:16.216Z,1.67
2023-02-25T00:23:48.012Z,2.00
2023-02-25T00:26:16.939Z,2.17
2023-02-25T00:28:44.747Z,0.60
2023-02-25T00:31:15.629Z,0.77
2023-02-25T00:33:43.415Z,2.73
2023-02-25T00:36:20.292Z,1.40
2023-02-25T00:38:48.619Z,2.23
2023-02-25T00:41:18.400Z,2.27
2023-02-25T00:43:51.378Z,2.20
2023-02-25T00:46:18.897Z,1.50
2023-02-25T00:48:46.078Z,1.73
2023-02-25T00:51:19.283Z,1.60
2023-02-25T00:53:46.217Z,1.43
2023-02-25T00:56:15.994Z,2.70
2023-02-25T00:58:44.721Z,1.87
2023-02-25T01:01:21.820Z,1.80
2023-02-25T01:03:50.174Z,2.63
2023-02-25T01:06:17.828Z,1.90
2023-02-25T01:08:45.444Z,2.17
2023-02-25T01:11:21.304Z,1.50
2023-02-25T01:13:49.652Z,1.30
2023-02-25T01:16:20.987Z,2.63
2023-02-25T01:18:51.514Z,1.67
2023-02-25T01:21:22.175Z,1.17
2023-02-25T01:23:49.500Z,1.77
2023-02-25T01:26:16.626Z,1.10
2023-02-25T01:28:43.515Z,2.30
2023-02-25T01:31:20.481Z,1.33
2023-02-25T01:33:47.369Z,1.83
2023-02-25T01:36:14.262Z,1.87
2023-02-25T01:38:41.083Z,1.57
2023-02-25T01:41:08.514Z,2.20
2023-02-25T01:43:35.409Z,1.87
2023-02-25T01:46:02.297Z,2.50
2023-02-25T01:48:32.840Z,1.10
2023-02-25T01:51:17.954Z,2.33
2023-02-25T01:53:46.725Z,2.50
2023-02-25T01:56:17.319Z,1.63
2023-02-25T01:58:44.829Z,2.07
2023-02-25T02:01:14.681Z,2.80
2023-02-25T02:03:42.598Z,1.17
2023-02-25T02:06:17.819Z,1.23
2023-02-25T02:08:46.137Z,2.17
2023-02-25T02:11:13.076Z,2.17
2023-02-25T02:13:44.801Z,2.83
2023-02-25T02:16:42.251Z,1.53
2023-02-25T02:19:35.061Z,1.60
2023-02-25T02:22:09.273Z,2.57
2023-02-25T02:24:58.969Z,3.13
2023-02-25T02:28:00.857Z,2.33
2023-02-25T02:30:43.454Z,2.30
2023-02-25T02:33:43.696Z,1.40
2023-02-25T02:36:19.187Z,1.43
2023-02-25T02:38:58.137Z,1.60
2023-02-25T02:41:37.657Z,1.30
2023-02-25T02:44:22.535Z,1.20
2023-02-25T02:46:55.269Z,1.57
2023-02-25T02:49:36.112Z,1.60
2023-02-25T02:52:17.602Z,2.07
2023-02-25T02:54:49.092Z,1.47
2023-02-25T02:57:18.304Z,2.20
2023-02-25T02:59:55.399Z,1.10
2023-02-25T03:02:27.931Z,0.97
2023-02-25T03:05:03.103Z,1.43
2023-02-25T03:07:35.658Z,1.43
2023-02-25T03:10:06.922Z,2.20
2023-02-25T03:12:33.813Z,2.40
2023-02-25T03:15:00.689Z,1.90
2023-02-25T03:17:32.261Z,1.93
2023-02-25T03:20:18.203Z,2.07
2023-02-25T03:22:49.110Z,1.63
2023-02-25T03:25:25.329Z,1.10
2023-02-25T03:28:02.759Z,1.87
2023-02-25T03:30:44.764Z,1.83
2023-02-25T03:33:24.531Z,2.77
2023-02-25T03:35:52.745Z,2.67
2023-02-25T03:38:24.708Z,2.50
2023-02-25T03:40:53.504Z,1.67
2023-02-25T03:43:28.053Z,1.33
2023-02-25T03:45:58.911Z,1.10
2023-02-25T03:48:27.093Z,2.00
2023-02-25T03:51:01.003Z,1.43
2023-02-25T03:53:29.359Z,1.63
2023-02-25T03:55:58.991Z,1.30
2023-02-25T03:58:26.103Z,1.23
2023-02-25T04:00:57.288Z,2.07
2023-02-25T04:03:24.188Z,2.00
2023-02-25T04:05:51.044Z,1.63
2023-02-25T04:08:18.145Z,1.73
2023-02-25T04:10:45.547Z,2.20
2023-02-25T04:13:14.539Z,1.53
2023-02-25T04:15:43.099Z,1.90
2023-02-25T04:18:10.093Z,2.23
2023-02-25T04:20:36.975Z,1.47
2023-02-25T04:23:03.876Z,1.70
2023-02-25T04:25:30.757Z,1.30
2023-02-25T04:27:57.942Z,1.53
2023-02-25T04:30:25.000Z,1.67
2023-02-25T04:32:52.030Z,1.27
2023-02-25T04:35:18.959Z,1.83
2023-02-25T04:37:45.764Z,1.20
2023-02-25T04:40:19.289Z,1.70
2023-02-25T04:42:47.113Z,1.00
2023-02-25T04:45:15.378Z,1.13
2023-02-25T04:47:42.399Z,1.83
2023-02-25T04:50:10.701Z,2.37
2023-02-25T04:52:37.634Z,1.90
2023-02-25T04:55:05.302Z,1.63
2023-02-25T04:57:32.105Z,1.27
2023-02-25T04:59:58.900Z,1.17
2023-02-25T05:02:25.867Z,0.70
2023-02-25T05:04:52.677Z,1.10
2023-02-25T05:07:20.300Z,0.80
2023-02-25T05:09:47.395Z,2.07
2023-02-25T05:12:14.788Z,1.13
2023-02-25T05:14:41.758Z,0.93
2023-02-25T05:17:08.581Z,2.00
2023-02-25T05:19:35.984Z,1.30
2023-02-25T05:22:02.870Z,1.33
2023-02-25T05:24:29.676Z,0.80
2023-02-25T05:26:56.500Z,1.63
2023-02-25T05:29:23.443Z,0.70
2023-02-25T05:31:51.882Z,1.07
2023-02-25T05:34:18.950Z,1.13
2023-02-25T05:36:46.990Z,0.77
2023-02-25T05:39:14.665Z,0.50
2023-02-25T05:41:42.154Z,0.73
2023-02-25T05:44:11.172Z,1.37
2023-02-25T05:46:38.146Z,0.80
2023-02-25T05:49:04.970Z,0.60
2023-02-25T05:51:31.861Z,1.43
2023-02-25T05:53:58.689Z,0.70
2023-02-25T05:56:30.232Z,0.50
2023-02-25T05:58:59.170Z,0.50
2023-02-25T06:01:31.764Z,0.80
2023-02-25T06:03:59.465Z,0.97
2023-02-25T06:06:29.180Z,0.30
2023-02-25T06:08:56.382Z,0.50
2023-02-25T06:11:26.379Z,0.57
2023-02-25T06:13:55.340Z,0.60
2023-02-25T06:16:23.608Z,0.40
2023-02-25T06:18:51.439Z,0.90
2023-02-25T06:21:18.684Z,0.60
2023-02-25T06:23:45.709Z,0.67
2023-02-25T06:26:14.377Z,1.37
2023-02-25T06:28:42.258Z,0.30
2023-02-25T06:31:11.041Z,0.67
2023-02-25T06:33:39.256Z,0.90
2023-02-25T06:36:07.892Z,0.50
2023-02-25T06:38:35.934Z,0.50
2023-02-25T06:41:15.697Z,0.30
2023-02-25T06:43:43.246Z,0.20
2023-02-25T06:46:12.770Z,0.60
2023-02-25T06:48:40.515Z,0.47
2023-02-25T06:51:09.582Z,0.40
2023-02-25T06:53:41.365Z,1.37
2023-02-25T06:56:09.100Z,0.30
2023-02-25T06:58:37.126Z,0.20
2023-02-25T07:01:08.690Z,0.30
2023-02-25T07:03:35.794Z,0.27
2023-02-25T07:06:02.605Z,0.90
2023-02-25T07:08:29.424Z,0.43
2023-02-25T07:10:56.242Z,0.63
2023-02-25T07:13:23.088Z,0.40
2023-02-25T07:15:50.035Z,0.90
2023-02-25T07:18:16.872Z,0.40
2023-02-25T07:20:44.072Z,0.50
2023-02-25T07:23:10.930Z,0.30
2023-02-25T07:25:38.757Z,0.37
2023-02-25T07:28:05.800Z,0.80
2023-02-25T07:30:33.607Z,0.27
2023-02-25T07:33:00.844Z,0.37
2023-02-25T07:35:27.714Z,0.50
2023-02-25T07:37:54.531Z,0.30
2023-02-25T07:40:21.433Z,0.30
2023-02-25T07:42:48.536Z,0.40
2023-02-25T07:45:15.401Z,0.37
2023-02-25T07:47:42.327Z,0.93
2023-02-25T07:50:13.267Z,0.30
2023-02-25T07:52:40.378Z,0.80
2023-02-25T07:55:07.967Z,0.30
2023-02-25T07:57:35.890Z,0.30
2023-02-25T08:00:03.095Z,0.30
2023-02-25T08:02:30.095Z,0.30
2023-02-25T08:04:56.960Z,0.30
2023-02-25T08:07:23.812Z,0.30
2023-02-25T08:09:50.779Z,0.20
2023-02-25T08:12:17.743Z,0.40
2023-02-25T08:14:45.844Z,0.30
2023-02-25T08:17:13.262Z,0.40
2023-02-25T08:19:41.640Z,0.30
2023-02-25T08:22:12.005Z,0.40
2023-02-25T08:24:39.859Z,0.40
2023-02-25T08:27:10.862Z,0.30
2023-02-25T08:29:38.336Z,0.20
2023-02-25T08:32:08.790Z,0.40
2023-02-25T08:34:36.063Z,0.93
2023-02-25T08:37:02.914Z,0.60
2023-02-25T08:39:31.184Z,0.30
2023-02-25T08:41:58.077Z,0.30
2023-02-25T08:44:24.966Z,0.50
2023-02-25T08:46:51.863Z,0.30
2023-02-25T08:49:18.812Z,0.50
2023-02-25T08:51:45.692Z,0.40
2023-02-25T08:54:14.122Z,0.50
2023-02-25T08:56:44.498Z,0.47
2023-02-25T08:59:14.226Z,0.47
2023-02-25T09:01:44.712Z,0.40
2023-02-25T09:04:20.515Z,0.30
2023-02-25T09:06:47.740Z,0.40
2023-02-25T09:09:19.692Z,0.50
2023-02-25T09:11:48.133Z,0.77
2023-02-25T09:14:15.524Z,0.30
2023-02-25T09:16:42.456Z,0.50
2023-02-25T09:19:10.928Z,0.20
2023-02-25T09:21:40.478Z,0.33
2023-02-25T09:24:08.312Z,0.50
2023-02-25T09:26:35.912Z,0.57
2023-02-25T09:29:05.086Z,0.30
2023-02-25T09:31:33.777Z,0.27
2023-02-25T09:34:06.616Z,0.30
2023-02-25T09:36:34.375Z,0.60
2023-02-25T09:39:01.705Z,0.30
2023-02-25T09:41:43.657Z,0.30
2023-02-25T09:44:19.641Z,0.50
2023-02-25T09:46:56.204Z,0.30
2023-02-25T09:49:31.988Z,0.83
2023-02-25T09:52:24.191Z,0.30
2023-02-25T09:55:03.817Z,0.30
2023-02-25T09:57:36.834Z,0.20
2023-02-25T10:00:12.736Z,0.30
2023-02-25T10:02:48.822Z,0.40
2023-02-25T10:05:39.371Z,0.50
2023-02-25T10:09:05.509Z,0.30
2023-02-25T10:12:06.273Z,0.30
2023-02-25T10:14:42.173Z,0.33
2023-02-25T10:17:28.166Z,0.30
2023-02-25T10:20:38.684Z,0.30
2023-02-25T10:23:14.408Z,0.30
2023-02-25T10:25:52.942Z,0.30
2023-02-25T10:28:21.046Z,0.50
2023-02-25T10:31:06.798Z,0.30
2023-02-25T10:33:42.562Z,0.20
2023-02-25T10:36:15.447Z,0.30
2023-02-25T10:38:51.210Z,0.37
2023-02-25T10:41:19.450Z,0.30
2023-02-25T10:43:46.496Z,0.67
2023-02-25T10:46:28.537Z,0.37
2023-02-25T10:49:00.931Z,0.60
2023-02-25T10:51:29.648Z,0.30
2023-02-25T10:54:01.441Z,0.40
2023-02-25T10:56:39.950Z,0.50
2023-02-25T10:59:24.030Z,0.30
2023-02-25T11:01:51.359Z,0.50
2023-02-25T11:04:27.828Z,0.50
2023-02-25T11:06:54.703Z,0.50
2023-02-25T11:09:21.481Z,0.33
2023-02-25T11:11:57.259Z,0.30
2023-02-25T11:14:29.797Z,0.40
2023-02-25T11:17:12.287Z,0.30
2023-02-25T11:19:41.440Z,0.40
2023-02-25T11:22:51.518Z,0.20
2023-02-25T11:25:32.279Z,0.30
2023-02-25T11:27:59.969Z,0.30
2023-02-25T11:30:34.511Z,0.40
2023-02-25T11:33:08.058Z,0.20
2023-02-25T11:35:39.268Z,0.20
2023-02-25T11:38:28.004Z,0.30
2023-02-25T11:40:55.738Z,0.30
2023-02-25T11:43:25.481Z,0.70
2023-02-25T11:45:55.073Z,0.20
2023-02-25T11:48:29.704Z,0.50
2023-02-25T11:51:20.365Z,0.50
2023-02-25T11:54:29.050Z,0.30
2023-02-25T11:56:58.089Z,0.20
2023-02-25T11:59:51.910Z,0.50
2023-02-25T12:02:30.984Z,0.30
2023-02-25T12:05:09.515Z,0.70
2023-02-25T12:07:59.992Z,0.30
2023-02-25T12:11:04.207Z,0.20
2023-02-25T12:14:08.132Z,0.20
2023-02-25T12:17:00.215Z,0.20
2023-02-25T12:19:44.788Z,0.30
2023-02-25T12:22:14.929Z,0.40
2023-02-25T12:25:16.885Z,1.03
2023-02-25T12:28:16.621Z,0.20
2023-02-25T12:31:02.049Z,0.20
2023-02-25T12:33:38.288Z,0.30
2023-02-25T12:36:13.776Z,0.30
2023-02-25T12:38:49.598Z,0.30
2023-02-25T12:41:31.791Z,0.40
2023-02-25T12:44:07.242Z,0.30
2023-02-25T12:46:58.025Z,0.30
2023-02-25T12:49:37.801Z,0.30
2023-02-25T12:52:13.896Z,0.30
2023-02-25T12:54:59.577Z,0.27
2023-02-25T12:57:36.314Z,0.20
2023-02-25T13:00:09.589Z,0.70
2023-02-25T13:03:08.654Z,0.20
2023-02-25T13:05:57.530Z,0.30
2023-02-25T13:08:29.604Z,0.30
2023-02-25T13:11:18.105Z,0.30
2023-02-25T13:14:00.023Z,0.30
2023-02-25T13:16:44.982Z,0.20
2023-02-25T13:19:24.979Z,0.23
2023-02-25T13:22:10.224Z,0.30
2023-02-25T13:24:37.021Z,0.20
2023-02-25T13:27:43.748Z,0.40
2023-02-25T13:30:20.793Z,0.50
2023-02-25T13:33:18.652Z,0.30
2023-02-25T13:35:51.265Z,0.63
2023-02-25T13:38:50.992Z,0.20
2023-02-25T13:41:36.319Z,0.30
2023-02-25T13:44:22.573Z,0.67
2023-02-25T13:47:13.821Z,0.30
2023-02-25T13:50:23.844Z,0.27
2023-02-25T13:53:39.241Z,0.20
2023-02-25T13:56:34.177Z,0.83
2023-02-25T13:59:19.493Z,0.67
2023-02-25T14:02:23.763Z,0.20
2023-02-25T14:05:08.679Z,0.27
2023-02-25T14:08:07.404Z,0.20
2023-02-25T14:10:55.528Z,0.30
2023-02-25T14:13:48.622Z,0.10
2023-02-25T14:16:31.960Z,0.20
2023-02-25T14:19:28.670Z,0.20
2023-02-25T14:22:01.251Z,0.30
2023-02-25T14:24:49.440Z,0.13
2023-02-25T14:27:29.095Z,0.23
2023-02-25T14:30:17.871Z,0.10
2023-02-25T14:33:06.637Z,0.20
2023-02-25T14:35:55.203Z,0.20
2023-02-25T14:38:37.645Z,0.30
2023-02-25T14:41:28.166Z,0.30
2023-02-25T14:44:01.487Z,0.30
2023-02-25T14:46:35.924Z,0.20
2023-02-25T14:49:15.086Z,0.20
2023-02-25T14:52:07.327Z,0.30
2023-02-25T14:55:09.154Z,0.20
2023-02-25T14:58:07.956Z,0.20
2023-02-25T15:00:43.932Z,0.37
2023-02-25T15:03:22.905Z,0.27
2023-02-25T15:06:09.552Z,0.43
2023-02-25T15:09:02.305Z,0.20
2023-02-25T15:11:29.091Z,0.20
2023-02-25T15:14:16.634Z,0.20
2023-02-25T15:16:52.348Z,0.30
2023-02-25T15:19:56.272Z,0.60
2023-02-25T15:22:24.384Z,0.30
2023-02-25T15:24:53.664Z,0.60
2023-02-25T15:27:35.827Z,0.20
2023-02-25T15:30:06.393Z,0.53
2023-02-25T15:32:52.458Z,0.50
2023-02-25T15:35:44.880Z,0.30
2023-02-25T15:38:39.300Z,0.30
2023-02-25T15:41:28.094Z,0.47
2023-02-25T15:43:54.928Z,0.20
2023-02-25T15:46:37.221Z,0.30
2023-02-25T15:49:33.047Z,0.53
2023-02-25T15:52:04.642Z,0.93
2023-02-25T15:54:31.801Z,0.67
2023-02-25T15:56:59.559Z,0.30
2023-02-25T15:59:50.602Z,0.20
2023-02-25T16:02:29.846Z,0.40
2023-02-25T16:05:09.788Z,0.30
2023-02-25T16:07:45.358Z,0.60
2023-02-25T16:10:26.519Z,0.43
2023-02-25T16:12:56.514Z,0.40
2023-02-25T16:15:31.040Z,0.40
2023-02-25T16:18:03.750Z,0.30
2023-02-25T16:20:40.378Z,0.30
2023-02-25T16:23:10.877Z,1.43
2023-02-25T16:25:44.025Z,1.20
2023-02-25T16:28:34.188Z,1.77
2023-02-25T16:31:33.086Z,1.60
2023-02-25T16:34:09.537Z,1.30
2023-02-25T16:37:00.545Z,0.50
2023-02-25T16:39:29.140Z,0.50
2023-02-25T16:41:56.045Z,0.80
2023-02-25T16:44:31.455Z,0.50
2023-02-25T16:46:58.448Z,1.13
2023-02-25T16:49:38.619Z,0.97
2023-02-25T16:52:07.286Z,0.30
2023-02-25T16:54:39.844Z,0.30
2023-02-25T16:57:17.773Z,0.57
2023-02-25T16:59:44.676Z,0.40
2023-02-25T17:02:17.583Z,0.37
2023-02-25T17:04:48.168Z,1.03
2023-02-25T17:07:22.148Z,0.30
2023-02-25T17:09:52.127Z,0.50
2023-02-25T17:12:45.894Z,0.57
2023-02-25T17:15:26.233Z,0.70
2023-02-25T17:18:00.070Z,0.30
2023-02-25T17:20:28.944Z,0.60
2023-02-25T17:22:58.625Z,0.40
2023-02-25T17:25:37.288Z,0.60
2023-02-25T17:28:05.065Z,0.43
2023-02-25T17:30:52.424Z,0.30
2023-02-25T17:33:27.138Z,0.70
2023-02-25T17:36:17.892Z,0.40
2023-02-25T17:38:45.726Z,0.50
2023-02-25T17:41:20.443Z,0.57
2023-02-25T17:43:47.385Z,0.60
2023-02-25T17:46:38.080Z,0.83
2023-02-25T17:49:21.907Z,1.00
2023-02-25T17:51:57.450Z,1.07
2023-02-25T17:54:26.944Z,1.13
2023-02-25T17:57:05.651Z,0.97
2023-02-25T17:59:41.134Z,0.57
2023-02-25T18:02:31.915Z,0.57
2023-02-25T18:05:13.539Z,0.20
2023-02-25T18:07:42.651Z,0.30
2023-02-25T18:10:33.392Z,0.40
2023-02-25T18:13:03.612Z,0.30
2023-02-25T18:15:34.589Z,0.60
2023-02-25T18:18:04.298Z,0.30
2023-02-25T18:20:46.211Z,0.30
2023-02-25T18:23:25.485Z,0.80
2023-02-25T18:26:18.845Z,0.77
2023-02-25T18:28:47.101Z,0.33
2023-02-25T18:31:15.547Z,0.30
2023-02-25T18:33:42.719Z,0.70
2023-02-25T18:36:10.276Z,0.50
2023-02-25T18:38:37.770Z,1.07
2023-02-25T18:41:08.711Z,0.67
2023-02-25T18:43:40.063Z,0.80
2023-02-25T18:46:07.023Z,0.90
2023-02-25T18:48:35.443Z,0.30
2023-02-25T18:51:05.315Z,0.30
2023-02-25T18:53:33.583Z,1.70
2023-02-25T18:56:01.066Z,0.63
2023-02-25T18:58:27.862Z,0.50
2023-02-25T19:00:57.647Z,1.40
2023-02-25T19:03:30.347Z,0.30
2023-02-25T19:05:57.416Z,1.33
2023-02-25T19:08:24.838Z,0.30
2023-02-25T19:10:53.922Z,0.50
2023-02-25T19:13:34.637Z,0.40
2023-02-25T19:16:02.112Z,0.30
2023-02-25T19:18:29.483Z,0.53
2023-02-25T19:20:56.869Z,0.40
2023-02-25T19:23:23.764Z,0.60
2023-02-25T19:25:56.063Z,0.30
2023-02-25T19:28:23.339Z,0.37
2023-02-25T19:30:50.378Z,0.40
2023-02-25T19:33:17.289Z,0.43
2023-02-25T19:35:44.284Z,0.87
2023-02-25T19:38:14.914Z,0.30
2023-02-25T19:40:44.073Z,1.00
2023-02-25T19:43:11.495Z,0.60
2023-02-25T19:45:40.273Z,0.27
2023-02-25T19:48:07.897Z,0.40
2023-02-25T19:50:35.358Z,0.30
2023-02-25T19:53:03.686Z,0.30
2023-02-25T19:55:30.623Z,0.43
2023-02-25T19:57:57.465Z,0.50
2023-02-25T20:00:25.878Z,0.40
2023-02-25T20:02:53.868Z,0.40
2023-02-25T20:05:22.000Z,0.40
2023-02-25T20:07:49.154Z,0.30
2023-02-25T20:10:16.968Z,0.50
2023-02-25T20:12:47.663Z,1.00
2023-02-25T20:15:16.129Z,0.50
2023-02-25T20:17:45.121Z,0.47
2023-02-25T20:20:14.429Z,0.47
2023-02-25T20:22:41.956Z,0.50
2023-02-25T20:25:10.536Z,0.70
2023-02-25T20:27:39.685Z,0.40
2023-02-25T20:30:07.636Z,0.30
2023-02-25T20:32:34.881Z,0.50
2023-02-25T20:35:02.300Z,0.30
2023-02-25T20:37:33.629Z,0.60
2023-02-25T20:40:00.762Z,0.40
2023-02-25T20:42:30.361Z,0.40
2023-02-25T20:44:58.924Z,0.93
2023-02-25T20:47:31.661Z,0.30
2023-02-25T20:49:59.052Z,0.30
2023-02-25T20:52:26.880Z,0.47
2023-02-25T20:54:54.376Z,0.30
2023-02-25T20:57:22.987Z,0.57
2023-02-25T20:59:50.921Z,0.43
2023-02-25T21:02:17.906Z,0.60
2023-02-25T21:04:46.633Z,1.47
2023-02-25T21:07:14.328Z,0.63
2023-02-25T21:09:41.220Z,0.50
2023-02-25T21:12:08.450Z,0.37
2023-02-25T21:14:35.278Z,0.30
2023-02-25T21:17:02.182Z,0.33
2023-02-25T21:19:29.208Z,0.30
2023-02-25T21:21:56.070Z,0.57
2023-02-25T21:24:23.250Z,0.30
2023-02-25T21:26:50.211Z,0.30
2023-02-25T21:29:17.165Z,0.30
2023-02-25T21:31:44.287Z,0.30
2023-02-25T21:34:14.028Z,0.70
2023-02-25T21:36:41.903Z,0.30
2023-02-25T21:39:09.590Z,0.30
2023-02-25T21:41:38.067Z,0.50
2023-02-25T21:44:05.032Z,0.30
2023-02-25T21:46:32.410Z,0.43
2023-02-25T21:48:59.629Z,0.87
2023-02-25T21:51:28.510Z,0.50
2023-02-25T21:53:57.611Z,0.57
2023-02-25T21:56:25.813Z,0.30
2023-02-25T21:58:54.745Z,0.67
2023-02-25T22:01:28.622Z,0.30
2023-02-25T22:03:56.505Z,0.30
2023-02-25T22:06:24.243Z,0.73
2023-02-25T22:08:52.092Z,0.30
2023-02-25T22:11:27.463Z,0.57
2023-02-25T22:13:54.724Z,0.70
2023-02-25T22:16:23.805Z,0.30
2023-02-25T22:18:52.338Z,0.40
2023-02-25T22:21:33.556Z,0.30
2023-02-25T22:24:02.159Z,0.40
2023-02-25T22:26:31.805Z,0.70
2023-02-25T22:29:01.843Z,0.70
2023-02-25T22:31:29.635Z,0.37
2023-02-25T22:33:57.271Z,0.53
2023-02-25T22:36:25.388Z,0.80
2023-02-25T22:38:53.028Z,0.43
2023-02-25T22:41:31.021Z,0.40
2023-02-25T22:43:58.993Z,0.80
2023-02-25T22:46:28.941Z,0.30
2023-02-25T22:48:57.924Z,0.40
2023-02-25T22:51:36.719Z,0.40
2023-02-25T22:54:04.888Z,1.53
2023-02-25T22:56:31.754Z,0.60
2023-02-25T22:58:58.619Z,0.57
2023-02-25T23:01:26.165Z,0.40
2023-02-25T23:03:56.145Z,0.50
2023-02-25T23:06:34.269Z,0.60
2023-02-25T23:09:08.889Z,0.43
2023-02-25T23:11:35.854Z,0.60
2023-02-25T23:14:04.233Z,0.30
2023-02-25T23:16:34.708Z,0.30
2023-02-25T23:19:04.566Z,0.73
2023-02-25T23:21:32.548Z,1.00
2023-02-25T23:24:01.985Z,0.60
2023-02-25T23:26:33.591Z,0.30
2023-02-25T23:29:03.149Z,0.37
2023-02-25T23:31:35.721Z,0.53
2023-02-25T23:34:11.228Z,0.77
2023-02-25T23:36:40.040Z,0.43
2023-02-25T23:39:08.286Z,0.50
2023-02-25T23:41:36.392Z,0.57
2023-02-25T23:44:03.943Z,0.40
2023-02-25T23:46:31.754Z,0.50
2023-02-25T23:49:01.379Z,0.57
2023-02-25T23:51:29.015Z,0.50
2023-02-25T23:53:58.205Z,0.77
2023-02-25T23:56:27.226Z,0.30
2023-02-25T23:58:55.062Z,0.63
